createdAt,value
2022-10-14T00:01:25.077Z,101009.56
2022-10-14T00:03:53.333Z,101020.00
2022-10-14T00:06:26.092Z,101033.19
2022-10-14T00:08:54.112Z,101047.97
2022-10-14T00:11:27.343Z,101068.59
2022-10-14T00:13:55.260Z,101087.84
2022-10-14T00:16:25.545Z,101082.22
2022-10-14T00:18:52.750Z,101092.44
2022-10-14T00:21:20.506Z,101085.31
2022-10-14T00:23:48.625Z,101081.44
2022-10-14T00:26:22.617Z,101083.50
2022-10-14T00:28:51.610Z,101072.41
2022-10-14T00:31:21.424Z,101071.84
2022-10-14T00:33:50.777Z,101056.22
2022-10-14T00:36:20.673Z,101056.72
2022-10-14T00:38:49.093Z,101055.53
2022-10-14T00:41:25.920Z,101059.47
2022-10-14T00:44:08.712Z,101059.47
2022-10-14T00:46:41.057Z,101058.53
2022-10-14T00:49:15.918Z,101053.72
2022-10-14T00:51:48.685Z,101042.22
2022-10-14T00:54:17.953Z,101038.09
2022-10-14T00:56:46.344Z,101026.25
2022-10-14T00:59:14.363Z,101012.63
2022-10-14T01:01:41.543Z,101001.50
2022-10-14T01:04:08.437Z,100999.75
2022-10-14T01:07:04.542Z,100997.91
2022-10-14T01:09:43.487Z,100997.47
2022-10-14T01:12:29.753Z,100990.34
2022-10-14T01:15:18.767Z,100975.78
2022-10-14T01:17:48.337Z,100975.44
2022-10-14T01:20:42.747Z,100991.28
2022-10-14T01:23:38.372Z,100976.84
2022-10-14T01:26:24.697Z,100978.31
2022-10-14T01:29:18.788Z,100972.69
2022-10-14T01:31:57.775Z,100965.34
2022-10-14T01:34:34.209Z,100955.00
2022-10-14T01:37:09.409Z,100954.69
2022-10-14T01:39:51.125Z,100957.44
2022-10-14T01:42:23.105Z,100950.22
2022-10-14T01:45:06.056Z,100950.69
2022-10-14T01:47:36.455Z,100940.72
2022-10-14T01:50:09.981Z,100947.47
2022-10-14T01:52:43.332Z,100961.22
2022-10-14T01:55:17.488Z,100947.34
2022-10-14T01:57:47.347Z,100938.19
2022-10-14T02:00:15.656Z,100930.63
2022-10-14T02:02:42.834Z,100932.22
2022-10-14T02:05:29.985Z,100930.28
2022-10-14T02:08:12.042Z,100926.38
2022-10-14T02:11:01.984Z,100928.88
2022-10-14T02:13:37.888Z,100912.81
2022-10-14T02:16:23.911Z,100923.38
2022-10-14T02:18:54.072Z,100937.81
2022-10-14T02:21:28.135Z,100942.66
2022-10-14T02:24:15.199Z,100942.88
2022-10-14T02:26:43.831Z,100913.50
2022-10-14T02:29:12.359Z,100917.84
2022-10-14T02:31:42.425Z,100906.81
2022-10-14T02:34:14.877Z,100904.44
2022-10-14T02:36:44.436Z,100911.19
2022-10-14T02:39:15.849Z,100909.59
2022-10-14T02:41:43.108Z,100917.16
2022-10-14T02:44:10.248Z,100917.63
2022-10-14T02:46:39.742Z,100916.69
2022-10-14T02:49:10.059Z,100913.94
2022-10-14T02:51:37.044Z,100909.13
2022-10-14T02:54:04.136Z,100893.66
2022-10-14T02:56:31.262Z,100893.19
2022-10-14T02:59:00.604Z,100889.88
2022-10-14T03:01:32.693Z,100893.22
2022-10-14T03:04:03.835Z,100890.00
2022-10-14T03:06:30.883Z,100866.28
2022-10-14T03:08:59.807Z,100851.22
2022-10-14T03:11:27.160Z,100870.16
2022-10-14T03:14:00.759Z,100862.38
2022-10-14T03:16:27.905Z,100863.03
2022-10-14T03:18:54.932Z,100860.53
2022-10-14T03:21:35.973Z,100889.53
2022-10-14T03:24:02.950Z,100882.66
2022-10-14T03:26:33.919Z,100875.31
2022-10-14T03:29:01.097Z,100872.69
2022-10-14T03:31:54.242Z,100869.25
2022-10-14T03:34:28.701Z,100870.31
2022-10-14T03:37:04.783Z,100865.47
2022-10-14T03:39:34.465Z,100881.19
2022-10-14T03:42:04.775Z,100880.94
2022-10-14T03:44:39.840Z,100886.34
2022-10-14T03:47:14.933Z,100883.72
2022-10-14T03:49:41.878Z,100872.69
2022-10-14T03:52:19.155Z,100885.31
2022-10-14T03:54:57.020Z,100905.47
2022-10-14T03:57:24.533Z,100898.84
2022-10-14T03:59:55.439Z,100901.13
2022-10-14T04:02:26.369Z,100905.03
2022-10-14T04:05:00.890Z,100921.53
2022-10-14T04:07:29.023Z,100926.56
2022-10-14T04:09:57.960Z,100923.03
2022-10-14T04:12:25.599Z,100922.22
2022-10-14T04:15:08.552Z,100922.66
2022-10-14T04:17:52.834Z,100936.91
2022-10-14T04:20:19.852Z,100928.19
2022-10-14T04:22:48.385Z,100909.59
2022-10-14T04:25:17.558Z,100887.84
2022-10-14T04:27:50.894Z,100877.50
2022-10-14T04:30:17.971Z,100893.22
2022-10-14T04:32:51.680Z,100888.63
2022-10-14T04:35:19.033Z,100902.84
2022-10-14T04:37:51.120Z,100917.75
2022-10-14T04:40:26.235Z,100922.13
2022-10-14T04:42:56.551Z,100924.50
2022-10-14T04:45:29.571Z,100928.41
2022-10-14T04:48:01.265Z,100936.78
2022-10-14T04:50:28.413Z,100931.75
2022-10-14T04:53:15.310Z,100933.81
2022-10-14T04:55:55.655Z,100921.31
2022-10-14T04:58:23.673Z,100910.28
2022-10-14T05:00:50.888Z,100903.19
2022-10-14T05:03:31.692Z,100901.81
2022-10-14T05:05:59.749Z,100900.09
2022-10-14T05:08:27.169Z,100901.50
2022-10-14T05:10:56.717Z,100897.47
2022-10-14T05:13:49.684Z,100898.69
2022-10-14T05:16:18.512Z,100905.22
2022-10-14T05:18:45.434Z,100908.25
2022-10-14T05:21:14.341Z,100918.56
2022-10-14T05:24:01.826Z,100895.38
2022-10-14T05:26:32.472Z,100895.09
2022-10-14T05:29:02.576Z,100888.34
2022-10-14T05:31:30.632Z,100906.69
2022-10-14T05:34:03.405Z,100910.88
2022-10-14T05:36:30.384Z,100904.16
2022-10-14T05:38:58.877Z,100904.63
2022-10-14T05:41:30.611Z,100905.72
2022-10-14T05:43:58.733Z,100913.34
2022-10-14T05:46:25.948Z,100900.25
2022-10-14T05:48:56.936Z,100900.44
2022-10-14T05:51:24.489Z,100902.31
2022-10-14T05:53:56.837Z,100914.75
2022-10-14T05:56:25.090Z,100917.34
2022-10-14T05:58:52.582Z,100918.28
2022-10-14T06:01:20.502Z,100917.75
2022-10-14T06:03:50.942Z,100931.25
2022-10-14T06:06:18.738Z,100937.75
2022-10-14T06:08:45.968Z,100927.28
2022-10-14T06:11:13.660Z,100930.56
2022-10-14T06:13:42.207Z,100930.81
2022-10-14T06:16:11.114Z,100938.78
2022-10-14T06:18:38.376Z,100928.56
2022-10-14T06:21:06.429Z,100927.81
2022-10-14T06:23:34.121Z,100930.22
2022-10-14T06:26:05.161Z,100937.72
2022-10-14T06:28:32.506Z,100933.44
2022-10-14T06:30:59.732Z,100930.59
2022-10-14T06:33:28.972Z,100948.09
2022-10-14T06:35:56.812Z,100957.34
2022-10-14T06:38:24.110Z,100961.31
2022-10-14T06:40:54.725Z,100959.84
2022-10-14T06:43:22.378Z,100950.34
2022-10-14T06:45:49.823Z,100960.31
2022-10-14T06:48:16.808Z,100969.34
2022-10-14T06:50:44.224Z,100983.19
2022-10-14T06:53:11.145Z,100985.38
2022-10-14T06:55:38.101Z,100985.50
2022-10-14T06:58:05.014Z,100987.97
2022-10-14T07:00:32.109Z,100984.88
2022-10-14T07:02:59.724Z,100994.97
2022-10-14T07:05:28.101Z,100993.88
2022-10-14T07:07:55.131Z,100995.31
2022-10-14T07:10:22.301Z,101003.84
2022-10-14T07:12:49.213Z,101002.25
2022-10-14T07:15:16.157Z,100995.94
2022-10-14T07:17:43.101Z,101008.31
2022-10-14T07:20:12.262Z,101011.56
2022-10-14T07:22:39.324Z,101008.34
2022-10-14T07:25:06.978Z,101008.50
2022-10-14T07:27:34.187Z,101016.63
2022-10-14T07:30:01.855Z,101018.94
2022-10-14T07:32:28.813Z,101016.72
2022-10-14T07:34:55.869Z,101005.75
2022-10-14T07:37:23.603Z,101005.88
2022-10-14T07:39:51.021Z,101016.38
2022-10-14T07:42:18.193Z,101025.91
2022-10-14T07:44:46.021Z,101023.59
2022-10-14T07:47:13.296Z,101011.66
2022-10-14T07:49:40.310Z,101012.94
2022-10-14T07:52:07.336Z,101020.56
2022-10-14T07:54:34.415Z,101020.44
2022-10-14T07:57:01.400Z,101026.72
2022-10-14T07:59:28.429Z,101022.59
2022-10-14T08:01:57.001Z,101026.84
2022-10-14T08:04:25.332Z,101030.97
2022-10-14T08:06:52.899Z,101031.59
2022-10-14T08:09:20.187Z,101032.81
2022-10-14T08:11:47.506Z,101041.72
2022-10-14T08:14:14.551Z,101048.47
2022-10-14T08:16:41.779Z,101058.13
2022-10-14T08:19:14.599Z,101059.81
2022-10-14T08:21:43.664Z,101039.63
2022-10-14T08:24:11.137Z,101043.09
2022-10-14T08:26:49.194Z,101047.59
2022-10-14T08:29:16.214Z,101045.31
2022-10-14T08:31:43.107Z,101068.13
2022-10-14T08:34:11.291Z,101074.22
2022-10-14T08:36:38.292Z,101074.22
2022-10-14T08:39:06.519Z,101080.19
2022-10-14T08:41:51.134Z,101090.97
2022-10-14T08:44:23.495Z,101079.44
2022-10-14T08:46:54.615Z,101082.78
2022-10-14T08:49:42.700Z,101077.84
2022-10-14T08:52:19.821Z,101086.16
2022-10-14T08:55:05.388Z,101094.72
2022-10-14T08:57:43.058Z,101078.72
2022-10-14T09:00:11.565Z,101074.53
2022-10-14T09:02:46.193Z,101075.38
2022-10-14T09:05:24.966Z,101069.06
2022-10-14T09:07:56.636Z,101068.81
2022-10-14T09:10:44.118Z,101072.84
2022-10-14T09:13:32.598Z,101084.84
2022-10-14T09:16:21.164Z,101087.75
2022-10-14T09:18:56.380Z,101085.84
2022-10-14T09:21:51.666Z,101081.53
2022-10-14T09:24:21.598Z,101075.09
2022-10-14T09:29:32.706Z,101074.13
2022-10-14T09:32:05.323Z,101073.03
2022-10-14T09:34:40.113Z,101073.25
2022-10-14T09:37:25.584Z,101071.91
2022-10-14T09:39:57.155Z,101066.44
2022-10-14T09:42:41.053Z,101064.16
2022-10-14T09:45:12.552Z,101076.09
2022-10-14T09:47:49.077Z,101072.53
2022-10-14T09:50:24.215Z,101069.47
2022-10-14T09:53:03.384Z,101059.97
2022-10-14T09:55:31.599Z,101074.44
2022-10-14T09:58:14.493Z,101080.78
2022-10-14T10:00:41.794Z,101073.94
2022-10-14T10:03:24.995Z,101071.22
2022-10-14T10:05:59.891Z,101075.00
2022-10-14T10:08:27.149Z,101075.59
2022-10-14T10:11:14.005Z,101078.66
2022-10-14T10:13:46.502Z,101081.53
2022-10-14T10:16:28.016Z,101088.97
2022-10-14T10:18:56.265Z,101083.44
2022-10-14T10:21:32.113Z,101067.13
2022-10-14T10:24:04.181Z,101072.75
2022-10-14T10:26:34.268Z,101085.84
2022-10-14T10:29:05.251Z,101073.69
2022-10-14T10:31:44.547Z,101074.50
2022-10-14T10:34:33.134Z,101077.75
2022-10-14T10:37:09.323Z,101083.16
2022-10-14T10:39:47.917Z,101081.31
2022-10-14T10:42:29.668Z,101071.56
2022-10-14T10:45:16.370Z,101074.72
2022-10-14T10:48:01.320Z,101069.75
2022-10-14T10:50:50.111Z,101070.63
2022-10-14T10:53:49.860Z,101069.38
2022-10-14T10:57:09.450Z,101065.38
2022-10-14T11:00:08.722Z,101059.28
2022-10-14T11:02:44.396Z,101062.56
2022-10-14T11:05:39.093Z,101061.66
2022-10-14T11:08:45.568Z,101050.97
2022-10-14T11:11:44.450Z,101051.16
2022-10-14T11:14:24.164Z,101034.47
2022-10-14T11:17:09.392Z,101032.88
2022-10-14T11:19:52.942Z,101024.31
2022-10-14T11:22:49.023Z,101017.53
2022-10-14T11:25:42.783Z,101025.19
2022-10-14T11:28:24.753Z,101015.75
2022-10-14T11:31:08.746Z,101011.06
2022-10-14T11:33:57.352Z,101014.97
2022-10-14T11:36:51.010Z,101013.00
2022-10-14T11:39:51.743Z,101015.56
2022-10-14T11:42:47.273Z,101010.59
2022-10-14T11:45:20.409Z,100999.94
2022-10-14T11:48:23.026Z,100994.78
2022-10-14T11:50:55.353Z,100998.81
2022-10-14T11:53:58.606Z,100987.84
2022-10-14T11:56:48.096Z,100996.88
2022-10-14T11:59:40.753Z,101005.47
2022-10-14T12:02:26.637Z,101012.44
2022-10-14T12:05:22.954Z,101005.16
2022-10-14T12:08:08.626Z,100994.75
2022-10-14T12:10:42.656Z,100986.81
2022-10-14T12:13:34.757Z,100986.03
2022-10-14T12:16:05.647Z,100985.06
2022-10-14T12:18:33.202Z,100981.97
2022-10-14T12:21:19.924Z,100976.75
2022-10-14T12:23:55.301Z,100980.75
2022-10-14T12:26:25.294Z,100980.88
2022-10-14T12:28:54.232Z,100980.16
2022-10-14T12:31:35.169Z,100979.97
2022-10-14T12:34:13.988Z,100974.09
2022-10-14T12:36:43.401Z,100972.53
2022-10-14T12:39:19.600Z,100983.53
2022-10-14T12:42:04.395Z,100989.00
2022-10-14T12:44:34.435Z,100979.63
2022-10-14T12:47:02.910Z,100978.94
2022-10-14T12:49:33.369Z,100987.28
2022-10-14T12:52:03.971Z,100982.50
2022-10-14T12:54:33.182Z,100983.75
2022-10-14T12:57:18.318Z,100988.03
2022-10-14T12:59:51.149Z,100982.66
2022-10-14T13:02:33.894Z,100977.91
2022-10-14T13:05:09.986Z,100972.81
2022-10-14T13:07:41.831Z,100975.97
2022-10-14T13:10:28.027Z,100977.44
2022-10-14T13:12:55.177Z,100982.16
2022-10-14T13:15:51.332Z,100985.34
2022-10-14T13:18:36.419Z,100985.63
2022-10-14T13:21:05.975Z,100982.25
2022-10-14T13:23:45.011Z,100975.13
2022-10-14T13:26:24.263Z,100974.69
2022-10-14T13:29:15.633Z,100978.69
2022-10-14T13:32:00.211Z,100982.72
2022-10-14T13:34:44.808Z,100983.09
2022-10-14T13:37:17.587Z,100982.50
2022-10-14T13:39:45.223Z,100971.72
2022-10-14T13:42:24.554Z,100973.09
2022-10-14T13:44:53.420Z,100982.25
2022-10-14T13:47:22.740Z,100984.09
2022-10-14T13:52:35.037Z,100991.78
2022-10-14T13:55:20.677Z,100992.81
2022-10-14T13:58:12.494Z,100997.94
2022-10-14T14:00:59.979Z,101000.28
2022-10-14T14:03:34.371Z,100999.66
2022-10-14T14:06:03.206Z,101003.84
2022-10-14T14:08:40.330Z,101004.41
2022-10-14T14:11:16.904Z,101006.53
2022-10-14T14:14:12.773Z,101002.25
2022-10-14T14:16:55.700Z,101003.47
2022-10-14T14:19:27.662Z,101001.06
2022-10-14T14:22:27.430Z,101005.91
2022-10-14T14:25:43.274Z,101010.59
2022-10-14T14:28:14.197Z,101006.50
2022-10-14T14:30:53.371Z,101013.50
2022-10-14T14:33:29.127Z,101012.00
2022-10-14T14:35:59.888Z,101013.16
2022-10-14T14:38:36.709Z,101011.22
2022-10-14T14:41:18.658Z,101015.09
2022-10-14T14:43:53.290Z,101011.06
2022-10-14T14:46:36.683Z,101018.06
2022-10-14T14:49:05.112Z,101005.75
2022-10-14T14:51:39.067Z,101004.88
2022-10-14T14:54:07.347Z,101001.59
2022-10-14T14:57:00.406Z,101008.31
2022-10-14T14:59:35.729Z,101009.25
2022-10-14T15:02:12.485Z,101009.75
2022-10-14T15:04:43.060Z,101000.50
2022-10-14T15:07:21.398Z,100996.34
2022-10-14T15:09:56.630Z,100993.38
2022-10-14T15:12:27.310Z,100996.22
2022-10-14T15:14:59.618Z,100988.34
2022-10-14T15:17:38.392Z,100997.66
2022-10-14T15:20:05.652Z,100995.22
2022-10-14T15:22:37.489Z,100999.03
2022-10-14T15:25:32.191Z,101003.50
2022-10-14T15:28:03.122Z,101004.81
2022-10-14T15:30:50.660Z,100998.03
2022-10-14T15:33:20.637Z,100999.88
2022-10-14T15:36:12.122Z,101004.50
2022-10-14T15:38:39.367Z,101003.63
2022-10-14T15:41:06.320Z,101013.03
2022-10-14T15:43:34.881Z,101020.81
2022-10-14T15:46:20.686Z,101016.28
2022-10-14T15:48:58.745Z,101016.53
2022-10-14T15:51:30.705Z,101008.63
2022-10-14T15:53:58.540Z,101011.72
2022-10-14T15:56:25.518Z,101009.34
2022-10-14T15:58:52.503Z,101016.31
2022-10-14T16:01:21.316Z,101027.69
2022-10-14T16:03:49.830Z,101031.19
2022-10-14T16:06:17.439Z,101028.06
2022-10-14T16:08:44.447Z,101027.63
2022-10-14T16:11:23.902Z,101036.28
2022-10-14T16:13:51.004Z,101051.63
2022-10-14T16:16:24.323Z,101052.41
2022-10-14T16:18:51.832Z,101055.97
2022-10-14T16:21:18.776Z,101051.69
2022-10-14T16:23:46.029Z,101055.78
2022-10-14T16:26:13.933Z,101042.84
2022-10-14T16:28:41.216Z,101045.78
2022-10-14T16:31:14.171Z,101047.84
2022-10-14T16:33:44.786Z,101052.56
2022-10-14T16:36:14.935Z,101042.31
2022-10-14T16:38:41.932Z,101036.94
2022-10-14T16:41:10.952Z,101039.72
2022-10-14T16:43:38.343Z,101046.47
2022-10-14T16:46:09.310Z,101046.16
2022-10-14T16:48:39.440Z,101043.72
2022-10-14T16:51:07.001Z,101052.16
2022-10-14T16:53:48.771Z,101052.63
2022-10-14T16:56:39.279Z,101045.66
2022-10-14T16:59:08.276Z,101048.69
2022-10-14T17:01:35.647Z,101066.53
2022-10-14T17:04:03.914Z,101064.56
2022-10-14T17:06:30.988Z,101059.03
2022-10-14T17:08:58.099Z,101064.47
2022-10-14T17:11:28.324Z,101051.28
2022-10-14T17:13:59.741Z,101055.56
2022-10-14T17:16:30.917Z,101066.56
2022-10-14T17:18:59.392Z,101075.50
2022-10-14T17:21:29.682Z,101069.44
2022-10-14T17:24:06.481Z,101072.09
2022-10-14T17:26:34.455Z,101057.84
2022-10-14T17:29:02.028Z,101061.81
2022-10-14T17:31:29.537Z,101061.44
2022-10-14T17:33:58.753Z,101052.63
2022-10-14T17:36:28.376Z,101056.56
2022-10-14T17:38:58.018Z,101062.44
2022-10-14T17:41:27.409Z,101077.44
2022-10-14T17:43:55.921Z,101076.56
2022-10-14T17:46:24.989Z,101083.06
2022-10-14T17:49:04.032Z,101091.88
2022-10-14T17:51:32.401Z,101098.41
2022-10-14T17:54:02.675Z,101115.63
2022-10-14T17:56:31.861Z,101118.66
2022-10-14T17:59:01.080Z,101124.56
2022-10-14T18:01:37.987Z,101124.09
2022-10-14T18:04:17.410Z,101121.66
2022-10-14T18:06:46.038Z,101122.28
2022-10-14T18:09:13.604Z,101125.34
2022-10-14T18:14:30.106Z,101124.63
2022-10-14T18:16:57.699Z,101130.16
2022-10-14T18:19:24.741Z,101136.38
2022-10-14T18:21:53.022Z,101145.38
2022-10-14T18:24:20.342Z,101140.03
2022-10-14T18:26:50.384Z,101150.19
2022-10-14T18:29:17.456Z,101152.75
2022-10-14T18:31:44.566Z,101149.44
2022-10-14T18:34:12.427Z,101150.94
2022-10-14T18:36:39.462Z,101141.44
2022-10-14T18:39:08.879Z,101150.84
2022-10-14T18:41:39.147Z,101155.31
2022-10-14T18:44:06.432Z,101154.53
2022-10-14T18:46:35.977Z,101154.78
2022-10-14T18:49:04.777Z,101163.75
2022-10-14T18:51:35.216Z,101162.97
2022-10-14T18:54:17.843Z,101162.03
2022-10-14T18:56:45.639Z,101161.47
2022-10-14T18:59:18.675Z,101169.56
2022-10-14T19:01:46.289Z,101163.47
2022-10-14T19:04:15.241Z,101172.03
2022-10-14T19:06:46.020Z,101168.09
2022-10-14T19:09:13.988Z,101171.84
2022-10-14T19:11:41.990Z,101179.69
2022-10-14T19:14:10.050Z,101180.84
2022-10-14T19:16:38.874Z,101189.00
2022-10-14T19:19:11.752Z,101185.91
2022-10-14T19:21:39.443Z,101196.13
2022-10-14T19:24:08.388Z,101202.72
2022-10-14T19:26:37.394Z,101207.66
2022-10-14T19:29:08.966Z,101205.16
2022-10-14T19:31:38.974Z,101206.53
2022-10-14T19:34:10.350Z,101196.91
2022-10-14T19:36:39.028Z,101194.03
2022-10-14T19:39:08.372Z,101194.41
2022-10-14T19:41:43.351Z,101205.75
2022-10-14T19:44:11.630Z,101201.41
2022-10-14T19:46:39.263Z,101208.88
2022-10-14T19:49:07.185Z,101206.22
2022-10-14T19:51:34.830Z,101203.91
2022-10-14T19:54:02.505Z,101208.72
2022-10-14T19:56:30.047Z,101205.28
2022-10-14T19:58:59.162Z,101204.84
2022-10-14T20:01:28.193Z,101209.31
2022-10-14T20:03:55.609Z,101214.03
2022-10-14T20:06:23.275Z,101210.47
2022-10-14T20:08:50.321Z,101215.09
2022-10-14T20:11:19.888Z,101209.78
2022-10-14T20:13:47.291Z,101214.16
2022-10-14T20:16:14.584Z,101227.50
2022-10-14T20:18:42.330Z,101229.19
2022-10-14T20:21:13.571Z,101221.41
2022-10-14T20:23:40.749Z,101225.22
2022-10-14T20:26:11.249Z,101226.69
2022-10-14T20:28:39.680Z,101221.28
2022-10-14T20:31:08.754Z,101224.84
2022-10-14T20:33:36.765Z,101224.41
2022-10-14T20:36:12.673Z,101221.66
2022-10-14T20:38:40.739Z,101229.19
2022-10-14T20:41:17.494Z,101229.34
2022-10-14T20:43:45.589Z,101219.22
2022-10-14T20:46:13.051Z,101228.28
2022-10-14T20:48:40.529Z,101221.19
2022-10-14T20:51:09.578Z,101219.22
2022-10-14T20:53:36.826Z,101210.59
2022-10-14T20:56:09.421Z,101205.53
2022-10-14T20:58:37.675Z,101206.69
2022-10-14T21:01:16.200Z,101205.75
2022-10-14T21:03:45.586Z,101204.63
2022-10-14T21:06:15.774Z,101202.31
2022-10-14T21:08:43.310Z,101204.84
2022-10-14T21:11:15.309Z,101201.41
2022-10-14T21:13:53.957Z,101198.19
2022-10-14T21:16:27.181Z,101197.72
2022-10-14T21:18:58.365Z,101192.56
2022-10-14T21:21:28.859Z,101189.22
2022-10-14T21:23:56.611Z,101200.25
2022-10-14T21:26:24.081Z,101208.41
2022-10-14T21:28:51.308Z,101205.22
2022-10-14T21:31:20.097Z,101207.38
2022-10-14T21:33:48.265Z,101195.66
2022-10-14T21:36:16.764Z,101199.22
2022-10-14T21:38:44.311Z,101198.44
2022-10-14T21:41:12.090Z,101198.66
2022-10-14T21:43:39.574Z,101209.91
2022-10-14T21:46:12.130Z,101202.53
2022-10-14T21:48:39.577Z,101202.63
2022-10-14T21:51:13.040Z,101204.47
2022-10-14T21:53:41.571Z,101207.81
2022-10-14T21:56:09.740Z,101207.59
2022-10-14T21:58:37.566Z,101212.06
2022-10-14T22:01:17.739Z,101217.19
2022-10-14T22:03:45.313Z,101212.13
2022-10-14T22:06:15.185Z,101212.00
2022-10-14T22:08:45.492Z,101202.94
2022-10-14T22:11:24.640Z,101196.16
2022-10-14T22:13:52.794Z,101208.22
2022-10-14T22:16:20.081Z,101192.81
2022-10-14T22:18:50.536Z,101194.75
2022-10-14T22:21:20.065Z,101188.81
2022-10-14T22:23:48.507Z,101186.25
2022-10-14T22:26:18.334Z,101199.78
2022-10-14T22:28:45.681Z,101203.59
2022-10-14T22:31:18.623Z,101198.41
2022-10-14T22:33:45.722Z,101198.53
2022-10-14T22:36:22.533Z,101188.91
2022-10-14T22:38:53.326Z,101186.34
2022-10-14T22:41:21.691Z,101186.88
2022-10-14T22:43:51.505Z,101182.25
2022-10-14T22:46:20.721Z,101187.81
2022-10-14T22:48:49.834Z,101186.38
2022-10-14T22:51:19.377Z,101185.31
2022-10-14T22:53:47.153Z,101187.44
2022-10-14T22:56:17.125Z,101193.97
2022-10-14T22:58:44.565Z,101185.84
2022-10-14T23:01:17.222Z,101181.50
2022-10-14T23:03:44.569Z,101181.16
2022-10-14T23:06:13.794Z,101182.31
2022-10-14T23:08:41.550Z,101179.56
2022-10-14T23:11:10.804Z,101185.06
2022-10-14T23:13:37.862Z,101175.84
2022-10-14T23:16:10.536Z,101182.31
2022-10-14T23:18:38.187Z,101175.16
2022-10-14T23:21:12.415Z,101177.78
2022-10-14T23:23:39.978Z,101184.09
2022-10-14T23:26:10.595Z,101194.63
2022-10-14T23:28:38.294Z,101181.69
2022-10-14T23:31:13.303Z,101180.75
2022-10-14T23:33:41.115Z,101180.75
2022-10-14T23:36:10.157Z,101188.50
2022-10-14T23:38:37.925Z,101181.75
2022-10-14T23:41:05.609Z,101183.84
2022-10-14T23:43:33.050Z,101181.56
2022-10-14T23:46:00.029Z,101172.00
2022-10-14T23:48:27.736Z,101174.31
2022-10-14T23:50:54.825Z,101178.53
2022-10-14T23:53:22.541Z,101174.47
2022-10-14T23:55:50.268Z,101194.06
2022-10-14T23:58:17.225Z,101182.59
